Time,TemperatureF,DewpointF,PressureIn,WindDirection,WindDirectionDegrees,WindSpeedMPH,WindSpeedGustMPH,Humidity,HourlyPrecipIn,Conditions,Clouds,dailyrainin,SolarRadiationWatts/m^2,SoftwareType,DateUTC
2013-03-08 00:04:00,52.8,14.0,30.02,South,190,0.0,0.0,21,0.00,,FEW120,0.00,0.00,VWS V14.01,2013-03-08 07:04:00,
2013-03-08 00:09:00,52.6,13.8,30.01,South,190,0.0,0.0,21,0.00,,FEW120,0.00,0.00,VWS V14.01,2013-03-08 07:09:00,
2013-03-08 00:14:00,52.3,13.5,30.01,South,190,0.0,0.0,21,0.00,,FEW120,0.00,0.00,VWS V14.01,2013-03-08 07:14:00,
2013-03-08 00:20:00,52.0,13.3,30.01,South,190,0.0,0.0,21,0.00,,FEW120,0.00,0.00,VWS V14.01,2013-03-08 07:20:00,
2013-03-08 00:25:00,51.7,14.1,30.01,South,190,0.0,0.0,22,0.00,,FEW120,0.00,0.00,VWS V14.01,2013-03-08 07:25:00,
2013-03-08 00:30:00,51.3,14.8,30.01,South,190,0.0,0.0,23,0.00,,FEW120,0.00,0.00,VWS V14.01,2013-03-08 07:30:00,
2013-03-08 00:35:00,51.0,14.5,30.01,South,190,0.0,0.0,23,0.00,,FEW120,0.00,0.00,VWS V14.01,2013-03-08 07:35:00,
2013-03-08 00:40:00,50.5,14.1,30.01,South,190,0.0,0.0,23,0.00,,FEW120,0.00,0.00,VWS V14.01,2013-03-08 07:40:00,
2013-03-08 00:45:00,50.0,13.7,30.01,South,190,0.0,0.0,23,0.00,,FEW120,0.00,0.00,VWS V14.01,2013-03-08 07:45:00,
2013-03-08 00:50:00,49.5,14.2,30.00,South,190,0.0,0.0,24,0.00,,FEW120,0.00,0.00,VWS V14.01,2013-03-08 07:50:00,
2013-03-08 00:55:00,49.1,13.9,30.00,South,190,0.0,0.0,24,0.00,,FEW120,0.00,0.00,VWS V14.01,2013-03-08 07:55:00,
2013-03-08 01:00:00,48.7,12.6,30.00,South,190,0.0,0.0,23,0.00,,SCT200,0.00,0.00,VWS V14.01,2013-03-08 08:00:00,
2013-03-08 01:05:00,48.4,12.3,30.00,South,190,0.0,0.0,23,0.00,,SCT200,0.00,0.00,VWS V14.01,2013-03-08 08:05:00,
2013-03-08 01:10:00,47.9,11.9,30.00,South,190,1.0,2.0,23,0.00,,SCT200,0.00,0.00,VWS V14.01,2013-03-08 08:10:00,
2013-03-08 01:15:00,47.5,11.6,30.00,South,190,0.0,1.0,23,0.00,,SCT200,0.00,0.00,VWS V14.01,2013-03-08 08:15:00,
2013-03-08 01:20:00,46.9,12.0,30.00,South,190,0.0,0.0,24,0.00,,SCT200,0.00,0.00,VWS V14.01,2013-03-08 08:20:00,
2013-03-08 01:26:00,46.4,11.6,29.99,WNW,294,2.0,6.0,24,0.00,,SCT200,0.00,0.00,VWS V14.01,2013-03-08 08:26:00,
2013-03-08 01:31:00,46.0,11.2,29.99,WNW,294,0.0,1.0,24,0.00,,SCT200,0.00,0.00,VWS V14.01,2013-03-08 08:31:00,
2013-03-08 01:36:00,45.7,11.9,29.99,WNW,294,0.0,3.0,25,0.00,,SCT200,0.00,0.00,VWS V14.01,2013-03-08 08:36:00,
2013-03-08 01:41:00,45.4,11.6,29.99,WNW,294,0.0,2.0,25,0.00,,SCT200,0.00,0.00,VWS V14.01,2013-03-08 08:41:00,
2013-03-08 01:46:00,45.1,11.4,29.99,WNW,294,3.0,5.0,25,0.00,,SCT200,0.00,0.00,VWS V14.01,2013-03-08 08:46:00,
2013-03-08 01:51:00,44.9,12.1,29.99,WNW,294,1.0,1.0,26,0.00,,SCT200,0.00,0.00,VWS V14.01,2013-03-08 08:51:00,
2013-03-08 01:56:00,44.7,11.9,29.99,WNW,294,0.0,1.0,26,0.00,,SCT200,0.00,0.00,VWS V14.01,2013-03-08 08:56:00,
2013-03-08 02:01:00,44.5,12.6,29.99,WNW,294,0.0,1.0,27,0.00,,FEW200,0.00,0.00,VWS V14.01,2013-03-08 09:01:00,
2013-03-08 02:06:00,44.2,12.4,29.99,WNW,294,0.0,2.0,27,0.00,,FEW200,0.00,0.00,VWS V14.01,2013-03-08 09:06:00,
2013-03-08 02:11:00,44.0,12.2,29.99,WNW,294,0.0,2.0,27,0.00,,FEW200,0.00,0.00,VWS V14.01,2013-03-08 09:11:00,
2013-03-08 02:16:00,43.8,12.0,29.98,WNW,294,0.0,1.0,27,0.00,,FEW200,0.00,0.00,VWS V14.01,2013-03-08 09:16:00,
2013-03-08 02:21:00,43.6,12.7,29.98,WNW,294,0.0,0.0,28,0.00,,FEW200,0.00,0.00,VWS V14.01,2013-03-08 09:21:00,
2013-03-08 02:27:00,43.4,12.5,29.98,WNW,294,0.0,0.0,28,0.00,,FEW200,0.00,0.00,VWS V14.01,2013-03-08 09:27:00,
2013-03-08 02:32:00,43.1,12.2,29.98,WNW,294,0.0,1.0,28,0.00,,FEW200,0.00,0.00,VWS V14.01,2013-03-08 09:32:00,
2013-03-08 02:37:00,42.9,12.9,29.98,WNW,294,0.0,0.0,29,0.00,,FEW200,0.00,0.00,VWS V14.01,2013-03-08 09:37:00,
2013-03-08 02:42:00,42.6,12.6,29.98,WNW,294,1.0,2.0,29,0.00,,FEW200,0.00,0.00,VWS V14.01,2013-03-08 09:42:00,
2013-03-08 02:47:00,42.5,12.5,29.98,WNW,294,0.0,1.0,29,0.00,,FEW200,0.00,0.00,VWS V14.01,2013-03-08 09:47:00,
2013-03-08 02:52:00,42.3,12.3,29.98,WNW,294,2.0,2.0,29,0.00,,FEW200,0.00,0.00,VWS V14.01,2013-03-08 09:52:00,
2013-03-08 02:57:00,42.1,12.1,29.98,WNW,294,0.0,5.0,29,0.00,,FEW200,0.00,0.00,VWS V14.01,2013-03-08 09:57:00,
2013-03-08 03:02:00,42.0,11.3,29.98,WNW,294,2.0,3.0,28,0.00,,FEW200,0.00,0.00,VWS V14.01,2013-03-08 10:02:00,
2013-03-08 03:07:00,41.9,11.2,29.98,WNW,294,0.0,0.0,28,0.00,,FEW200,0.00,0.00,VWS V14.01,2013-03-08 10:07:00,
2013-03-08 03:12:00,41.8,11.1,29.98,WNW,294,0.0,0.0,28,0.00,,FEW200,0.00,0.00,VWS V14.01,2013-03-08 10:12:00,
2013-03-08 03:17:00,41.6,10.9,29.98,WNW,294,0.0,2.0,28,0.00,,FEW200,0.00,0.00,VWS V14.01,2013-03-08 10:17:00,
2013-03-08 03:22:00,41.5,10.8,29.98,WNW,294,0.0,1.0,28,0.00,,FEW200,0.00,0.00,VWS V14.01,2013-03-08 10:22:00,
2013-03-08 03:27:00,41.4,11.5,29.98,WNW,294,0.0,0.0,29,0.00,,FEW200,0.00,0.00,VWS V14.01,2013-03-08 10:27:00,
2013-03-08 03:32:00,41.4,12.3,29.98,WNW,294,0.0,0.0,30,0.00,,FEW200,0.00,0.00,VWS V14.01,2013-03-08 10:32:00,
2013-03-08 03:37:00,41.3,11.5,29.98,WNW,294,0.0,0.0,29,0.00,,FEW200,0.00,0.00,VWS V14.01,2013-03-08 10:37:00,
2013-03-08 03:43:00,41.3,12.2,29.98,WNW,294,0.0,0.0,30,0.00,,FEW200,0.00,0.00,VWS V14.01,2013-03-08 10:43:00,
2013-03-08 03:48:00,41.2,12.1,29.98,WNW,294,0.0,1.0,30,0.00,,FEW200,0.00,0.00,VWS V14.01,2013-03-08 10:48:00,
2013-03-08 03:53:00,41.1,12.0,29.98,WNW,294,0.0,1.0,30,0.00,,FEW200,0.00,0.00,VWS V14.01,2013-03-08 10:53:00,
2013-03-08 03:58:00,41.1,12.0,29.98,WNW,294,0.0,0.0,30,0.00,,FEW200,0.00,0.00,VWS V14.01,2013-03-08 10:58:00,
2013-03-08 04:03:00,41.0,12.7,29.98,WNW,294,0.0,0.0,31,0.00,,FEW200,0.00,0.00,VWS V14.01,2013-03-08 11:03:00,
2013-03-08 04:08:00,41.0,12.7,29.98,WNW,294,0.0,0.0,31,0.00,,FEW200,0.00,0.00,VWS V14.01,2013-03-08 11:08:00,
2013-03-08 04:13:00,40.8,12.5,29.99,WNW,294,0.0,0.0,31,0.00,,FEW200,0.00,0.00,VWS V14.01,2013-03-08 11:13:00,
2013-03-08 04:18:00,40.6,13.1,29.99,WNW,294,0.0,1.0,32,0.00,,FEW200,0.00,0.00,VWS V14.01,2013-03-08 11:18:00,
2013-03-08 04:23:00,40.4,12.2,29.99,WNW,294,0.0,0.0,31,0.00,,FEW200,0.00,0.00,VWS V14.01,2013-03-08 11:23:00,
2013-03-08 04:28:00,40.3,12.1,29.99,WNW,294,0.0,1.0,31,0.00,,FEW200,0.00,0.00,VWS V14.01,2013-03-08 11:28:00,
2013-03-08 04:33:00,40.1,11.9,30.00,WNW,294,0.0,1.0,31,0.00,,FEW200,0.00,0.00,VWS V14.01,2013-03-08 11:33:00,
2013-03-08 04:38:00,39.9,11.7,30.00,WNW,294,0.0,2.0,31,0.00,,FEW200,0.00,0.00,VWS V14.01,2013-03-08 11:38:00,
2013-03-08 04:44:00,39.7,11.6,30.00,WNW,294,2.0,4.0,31,0.00,,FEW200,0.00,0.00,VWS V14.01,2013-03-08 11:44:00,
2013-03-08 04:49:00,39.5,11.4,30.00,WNW,292,1.0,5.0,31,0.00,,FEW200,0.00,0.00,VWS V14.01,2013-03-08 11:49:00,
2013-03-08 04:54:00,39.3,11.2,30.00,WNW,292,0.0,3.0,31,0.00,,FEW200,0.00,0.00,VWS V14.01,2013-03-08 11:54:00,
2013-03-08 04:59:00,39.3,11.2,30.00,WNW,292,3.0,4.0,31,0.00,,FEW200,0.00,0.00,VWS V14.01,2013-03-08 11:59:00,
2013-03-08 05:04:00,39.3,11.2,30.00,WNW,292,1.0,4.0,31,0.00,,FEW200,0.00,0.00,VWS V14.01,2013-03-08 12:04:00,
2013-03-08 05:09:00,39.3,11.9,30.00,WNW,292,0.0,0.0,32,0.00,,FEW200,0.00,0.00,VWS V14.01,2013-03-08 12:09:00,
2013-03-08 05:14:00,39.4,11.3,30.00,WNW,292,0.0,0.0,31,0.00,,FEW200,0.00,0.00,VWS V14.01,2013-03-08 12:14:00,
2013-03-08 05:19:00,39.4,11.3,30.00,WNW,292,0.0,0.0,31,0.00,,FEW200,0.00,0.00,VWS V14.01,2013-03-08 12:19:00,
2013-03-08 05:24:00,39.4,11.3,30.00,WNW,292,0.0,0.0,31,0.00,,FEW200,0.00,0.00,VWS V14.01,2013-03-08 12:24:00,
2013-03-08 05:29:00,39.4,11.3,30.00,WNW,292,0.0,0.0,31,0.00,,FEW200,0.00,0.00,VWS V14.01,2013-03-08 12:29:00,
2013-03-08 05:34:00,39.4,12.0,30.01,WNW,292,0.0,0.0,32,0.00,,FEW200,0.00,0.00,VWS V14.01,2013-03-08 12:34:00,
2013-03-08 05:39:00,39.3,11.9,30.01,WNW,292,1.0,2.0,32,0.00,,FEW200,0.00,0.00,VWS V14.01,2013-03-08 12:39:00,
2013-03-08 05:44:00,39.3,11.9,30.01,WNW,292,0.0,0.0,32,0.00,,FEW200,0.00,0.00,VWS V14.01,2013-03-08 12:44:00,
2013-03-08 05:50:00,39.3,11.9,30.01,WNW,292,0.0,0.0,32,0.00,,FEW200,0.00,0.00,VWS V14.01,2013-03-08 12:50:00,
2013-03-08 05:55:00,39.3,11.9,30.01,WNW,292,0.0,0.0,32,0.00,,FEW200,0.00,0.00,VWS V14.01,2013-03-08 12:55:00,
2013-03-08 06:00:00,39.2,12.5,30.01,WNW,292,2.0,3.0,33,0.00,,FEW200,0.00,0.00,VWS V14.01,2013-03-08 13:00:00,
2013-03-08 06:05:00,39.1,11.8,30.01,WNW,292,0.0,0.0,32,0.00,,FEW200,0.00,0.00,VWS V14.01,2013-03-08 13:05:00,
2013-03-08 06:10:00,39.0,11.7,30.00,WNW,292,0.0,2.0,32,0.00,,FEW200,0.00,0.00,VWS V14.01,2013-03-08 13:10:00,
2013-03-08 06:15:00,38.9,12.9,30.00,WNW,292,0.0,0.0,34,0.00,,FEW200,0.00,0.00,VWS V14.01,2013-03-08 13:15:00,
2013-03-08 06:20:00,38.7,12.8,30.00,WNW,292,0.0,0.0,34,0.00,,FEW200,0.00,0.00,VWS V14.01,2013-03-08 13:20:00,
2013-03-08 06:25:00,38.6,12.7,30.00,WNW,292,0.0,0.0,34,0.00,,FEW200,0.00,0.00,VWS V14.01,2013-03-08 13:25:00,
2013-03-08 06:30:00,38.5,12.6,30.00,WNW,292,0.0,2.0,34,0.00,,FEW200,0.00,21.00,VWS V14.01,2013-03-08 13:30:00,
2013-03-08 06:35:00,38.3,12.4,30.00,WNW,292,0.0,0.0,34,0.00,,FEW200,0.00,28.00,VWS V14.01,2013-03-08 13:35:00,
2013-03-08 06:40:00,38.2,12.3,30.00,WNW,292,0.0,0.0,34,0.00,,FEW200,0.00,33.00,VWS V14.01,2013-03-08 13:40:00,
2013-03-08 06:45:00,38.1,12.2,30.00,WNW,292,0.0,0.0,34,0.00,,FEW200,0.00,39.00,VWS V14.01,2013-03-08 13:45:00,
2013-03-08 06:50:00,38.0,12.1,29.99,WNW,292,0.0,0.0,34,0.00,,FEW200,0.00,40.00,VWS V14.01,2013-03-08 13:50:00,
2013-03-08 06:55:00,38.0,12.1,29.99,WNW,292,0.0,0.0,34,0.00,,FEW200,0.00,54.00,VWS V14.01,2013-03-08 13:55:00,
2013-03-08 07:00:00,38.0,12.8,29.99,WNW,292,0.0,1.0,35,0.00,,BKN100,0.00,65.00,VWS V14.01,2013-03-08 14:00:00,
2013-03-08 07:05:00,38.0,12.8,30.00,WNW,292,0.0,0.0,35,0.00,,BKN100,0.00,67.00,VWS V14.01,2013-03-08 14:05:00,
2013-03-08 07:10:00,38.3,13.1,29.99,WNW,292,0.0,0.0,35,0.00,,BKN100,0.00,67.00,VWS V14.01,2013-03-08 14:10:00,
2013-03-08 07:15:00,38.4,13.1,30.00,WNW,292,0.0,0.0,35,0.00,,BKN100,0.00,63.00,VWS V14.01,2013-03-08 14:15:00,
2013-03-08 07:20:00,38.6,13.3,29.99,WNW,292,0.0,0.0,35,0.00,,BKN100,0.00,51.00,VWS V14.01,2013-03-08 14:20:00,
2013-03-08 07:26:00,38.8,12.9,29.99,WNW,292,0.0,0.0,34,0.00,,BKN100,0.00,42.00,VWS V14.01,2013-03-08 14:26:00,
2013-03-08 07:31:00,39.0,13.7,29.99,WNW,292,0.0,0.0,35,0.00,,BKN100,0.00,91.00,VWS V14.01,2013-03-08 14:31:00,
2013-03-08 07:36:00,39.3,13.3,29.99,WNW,292,0.0,0.0,34,0.00,,BKN100,0.00,230.00,VWS V14.01,2013-03-08 14:36:00,
2013-03-08 07:41:00,42.9,15.1,29.99,WNW,292,0.0,0.0,32,0.00,,BKN100,0.00,250.00,VWS V14.01,2013-03-08 14:41:00,
2013-03-08 07:46:00,45.8,14.6,29.99,WNW,292,0.0,0.0,28,0.00,,BKN100,0.00,271.00,VWS V14.01,2013-03-08 14:46:00,
2013-03-08 07:51:00,46.9,14.7,29.99,WNW,292,0.0,0.0,27,0.00,,BKN100,0.00,292.00,VWS V14.01,2013-03-08 14:51:00,
2013-03-08 07:56:00,47.5,14.3,29.99,WNW,292,0.0,0.0,26,0.00,,BKN100,0.00,309.00,VWS V14.01,2013-03-08 14:56:00,
2013-03-08 08:01:00,48.1,14.9,29.99,WNW,292,0.0,0.0,26,0.00,,SCT220,0.00,327.00,VWS V14.01,2013-03-08 15:01:00,
2013-03-08 08:06:00,48.5,16.1,29.99,WNW,292,0.0,0.0,27,0.00,,SCT220,0.00,346.00,VWS V14.01,2013-03-08 15:06:00,
2013-03-08 08:11:00,49.4,16.0,29.98,WNW,292,0.0,1.0,26,0.00,,SCT220,0.00,374.00,VWS V14.01,2013-03-08 15:11:00,
2013-03-08 08:16:00,49.5,16.0,29.98,WNW,292,0.0,1.0,26,0.00,,SCT220,0.00,390.00,VWS V14.01,2013-03-08 15:16:00,
2013-03-08 08:21:00,49.5,16.0,29.98,WNW,292,0.0,0.0,26,0.00,,SCT220,0.00,399.00,VWS V14.01,2013-03-08 15:21:00,
2013-03-08 08:26:00,50.3,15.8,29.98,WNW,292,0.0,0.0,25,0.00,,SCT220,0.00,418.00,VWS V14.01,2013-03-08 15:26:00,
2013-03-08 08:32:00,50.8,15.3,29.98,WNW,292,2.0,4.0,24,0.00,,SCT220,0.00,434.00,VWS V14.01,2013-03-08 15:32:00,
2013-03-08 08:37:00,51.1,16.5,29.98,WNW,292,0.0,0.0,25,0.00,,SCT220,0.00,443.00,VWS V14.01,2013-03-08 15:37:00,
2013-03-08 08:42:00,51.7,16.1,29.98,WNW,292,0.0,1.0,24,0.00,,SCT220,0.00,483.00,VWS V14.01,2013-03-08 15:42:00,
2013-03-08 08:47:00,52.1,16.4,29.98,WNW,292,2.0,3.0,24,0.00,,SCT220,0.00,411.00,VWS V14.01,2013-03-08 15:47:00,
2013-03-08 08:52:00,52.5,15.8,29.97,WNW,292,2.0,3.0,23,0.00,,SCT220,0.00,459.00,VWS V14.01,2013-03-08 15:52:00,
2013-03-08 08:57:00,53.2,17.4,29.97,WNW,292,2.0,3.0,24,0.00,,SCT220,0.00,538.00,VWS V14.01,2013-03-08 15:57:00,
2013-03-08 09:02:00,53.3,17.5,29.98,WNW,292,0.0,2.0,24,0.00,,SCT220,0.00,571.00,VWS V14.01,2013-03-08 16:02:00,
2013-03-08 09:07:00,53.5,16.6,29.98,SW,229,5.0,6.0,23,0.00,,SCT220,0.00,563.00,VWS V14.01,2013-03-08 16:07:00,
2013-03-08 09:12:00,54.2,16.2,29.99,SW,228,0.0,3.0,22,0.00,,SCT220,0.00,615.00,VWS V14.01,2013-03-08 16:12:00,
2013-03-08 09:17:00,54.6,16.5,29.99,SW,228,0.0,4.0,22,0.00,,SCT220,0.00,596.00,VWS V14.01,2013-03-08 16:17:00,
2013-03-08 09:22:00,55.7,17.5,29.99,SW,215,0.0,6.0,22,0.00,,SCT220,0.00,652.00,VWS V14.01,2013-03-08 16:22:00,
2013-03-08 09:27:00,56.6,17.1,29.98,SSW,200,3.0,4.0,21,0.00,,SCT220,0.00,629.00,VWS V14.01,2013-03-08 16:27:00,
2013-03-08 09:32:00,57.0,17.5,29.99,SSW,195,2.0,7.0,21,0.00,,SCT220,0.00,429.00,VWS V14.01,2013-03-08 16:32:00,
2013-03-08 09:37:00,57.2,17.6,29.98,South,186,2.0,7.0,21,0.00,,SCT220,0.00,279.00,VWS V14.01,2013-03-08 16:37:00,
2013-03-08 09:42:00,57.3,17.7,29.98,South,171,0.0,6.0,21,0.00,,SCT220,0.00,366.00,VWS V14.01,2013-03-08 16:42:00,
2013-03-08 09:47:00,58.2,18.5,29.98,South,182,0.0,3.0,21,0.00,,SCT220,0.00,330.00,VWS V14.01,2013-03-08 16:47:00,
2013-03-08 09:52:00,58.4,17.5,29.98,South,177,0.0,5.0,20,0.00,,SCT220,0.00,276.00,VWS V14.01,2013-03-08 16:52:00,
2013-03-08 09:57:00,58.5,18.7,29.98,SSW,196,0.0,4.0,21,0.00,,SCT220,0.00,234.00,VWS V14.01,2013-03-08 16:57:00,
2013-03-08 10:02:00,58.6,18.8,29.98,South,171,2.0,4.0,21,0.00,,SCT220,0.00,251.00,VWS V14.01,2013-03-08 17:02:00,
2013-03-08 10:07:00,58.8,19.0,29.98,South,176,0.0,5.0,21,0.00,,SCT220,0.00,237.00,VWS V14.01,2013-03-08 17:07:00,
2013-03-08 10:12:00,58.9,17.9,29.97,South,174,2.0,6.0,20,0.00,,SCT220,0.00,257.00,VWS V14.01,2013-03-08 17:12:00,
2013-03-08 10:17:00,58.9,17.9,29.97,South,181,0.0,9.0,20,0.00,,SCT220,0.00,258.00,VWS V14.01,2013-03-08 17:17:00,
2013-03-08 10:23:00,58.9,19.1,29.97,South,190,4.0,9.0,21,0.00,,SCT220,0.00,255.00,VWS V14.01,2013-03-08 17:23:00,
2013-03-08 10:28:00,58.7,17.8,29.97,South,174,8.0,11.0,20,0.00,,SCT220,0.00,216.00,VWS V14.01,2013-03-08 17:28:00,
2013-03-08 10:33:00,58.5,17.6,29.97,SSW,200,2.0,9.0,20,0.00,,SCT220,0.00,239.00,VWS V14.01,2013-03-08 17:33:00,
2013-03-08 10:38:00,58.5,17.6,29.97,South,173,5.0,12.0,20,0.00,,SCT220,0.00,178.00,VWS V14.01,2013-03-08 17:38:00,
2013-03-08 10:43:00,58.4,17.5,29.96,South,180,9.0,9.0,20,0.00,,SCT220,0.00,237.00,VWS V14.01,2013-03-08 17:43:00,
2013-03-08 10:48:00,58.4,17.5,29.96,SSW,192,1.0,7.0,20,0.00,,SCT220,0.00,552.00,VWS V14.01,2013-03-08 17:48:00,
2013-03-08 10:53:00,59.4,18.3,29.96,South,174,1.0,8.0,20,0.00,,SCT220,0.00,538.00,VWS V14.01,2013-03-08 17:53:00,
2013-03-08 10:58:00,60.3,19.1,29.96,South,184,5.0,7.0,20,0.00,,SCT220,0.00,596.00,VWS V14.01,2013-03-08 17:58:00,
2013-03-08 11:03:00,62.0,20.5,29.96,South,183,2.0,4.0,20,0.00,,BKN150,0.00,1113.00,VWS V14.01,2013-03-08 18:03:00,
2013-03-08 11:08:00,63.1,18.9,29.95,South,186,5.0,6.0,18,0.00,,BKN150,0.00,308.00,VWS V14.01,2013-03-08 18:08:00,
2013-03-08 11:13:00,63.1,18.9,29.95,South,177,7.0,8.0,18,0.00,,BKN150,0.00,408.00,VWS V14.01,2013-03-08 18:13:00,
2013-03-08 11:18:00,62.8,21.2,29.94,South,187,3.0,8.0,20,0.00,,BKN150,0.00,795.00,VWS V14.01,2013-03-08 18:18:00,
2013-03-08 11:23:00,62.7,21.1,29.94,SSE,151,1.0,9.0,20,0.00,,BKN150,0.00,548.00,VWS V14.01,2013-03-08 18:23:00,
2013-03-08 11:28:00,62.5,19.7,29.94,South,189,7.0,10.0,19,0.00,,BKN150,0.00,359.00,VWS V14.01,2013-03-08 18:28:00,
2013-03-08 11:33:00,61.7,20.2,29.94,SSW,205,7.0,8.0,20,0.00,,BKN150,0.00,281.00,VWS V14.01,2013-03-08 18:33:00,
2013-03-08 11:38:00,61.6,21.3,29.93,SSE,163,1.0,7.0,21,0.00,,BKN150,0.00,271.00,VWS V14.01,2013-03-08 18:38:00,
2013-03-08 11:44:00,61.3,21.1,29.93,South,171,4.0,11.0,21,0.00,,BKN150,0.00,269.00,VWS V14.01,2013-03-08 18:44:00,
2013-03-08 11:49:00,61.1,22.0,29.93,South,175,5.0,14.0,22,0.00,,BKN150,0.00,394.00,VWS V14.01,2013-03-08 18:49:00,
2013-03-08 11:54:00,61.0,21.9,29.93,South,182,5.0,14.0,22,0.00,,BKN150,0.00,462.00,VWS V14.01,2013-03-08 18:54:00,
2013-03-08 11:59:00,61.3,22.2,29.92,South,189,4.0,13.0,22,0.00,,BKN150,0.00,431.00,VWS V14.01,2013-03-08 18:59:00,
2013-03-08 12:04:00,61.6,22.4,29.92,South,170,5.0,10.0,22,0.00,,BKN190,0.00,448.00,VWS V14.01,2013-03-08 19:04:00,
2013-03-08 12:09:00,62.9,23.5,29.92,South,186,0.0,0.0,22,0.00,,BKN190,0.00,826.00,VWS V14.01,2013-03-08 19:09:00,
2013-03-08 12:14:00,63.5,22.9,29.92,South,185,2.0,4.0,21,0.00,,BKN190,0.00,513.00,VWS V14.01,2013-03-08 19:14:00,
2013-03-08 12:19:00,63.3,22.7,29.91,SSW,194,4.0,12.0,21,0.00,,BKN190,0.00,413.00,VWS V14.01,2013-03-08 19:19:00,
2013-03-08 12:24:00,62.6,22.1,29.91,SSW,193,6.0,11.0,21,0.00,,BKN190,0.00,315.00,VWS V14.01,2013-03-08 19:24:00,
2013-03-08 12:29:00,62.6,22.1,29.90,SSE,153,7.0,7.0,21,0.00,,BKN190,0.00,218.00,VWS V14.01,2013-03-08 19:29:00,
2013-03-08 12:35:00,62.2,22.9,29.90,South,181,1.0,6.0,22,0.00,,BKN190,0.00,207.00,VWS V14.01,2013-03-08 19:35:00,
2013-03-08 12:40:00,61.7,23.5,29.90,South,178,1.0,8.0,23,0.00,,BKN190,0.00,239.00,VWS V14.01,2013-03-08 19:40:00,
2013-03-08 12:45:00,61.5,24.4,29.90,SW,229,9.0,9.0,24,0.00,,BKN190,0.00,236.00,VWS V14.01,2013-03-08 19:45:00,
2013-03-08 12:50:00,61.1,24.1,29.89,South,191,5.0,11.0,24,0.00,,BKN190,0.00,197.00,VWS V14.01,2013-03-08 19:50:00,
2013-03-08 12:55:00,60.9,23.9,29.89,South,186,3.0,7.0,24,0.00,,BKN190,0.00,179.00,VWS V14.01,2013-03-08 19:55:00,
2013-03-08 13:00:00,60.8,25.7,29.88,SSE,165,5.0,11.0,26,0.00,,BKN190,0.00,134.00,VWS V14.01,2013-03-08 20:00:00,
2013-03-08 13:05:00,60.5,26.4,29.88,SW,217,4.0,10.0,27,0.00,,BKN200,0.00,102.00,VWS V14.01,2013-03-08 20:05:00,
2013-03-08 13:10:00,60.2,26.1,29.89,SSW,205,5.0,5.0,27,0.00,,BKN200,0.00,81.00,VWS V14.01,2013-03-08 20:10:00,
2013-03-08 13:15:00,59.6,28.1,29.89,WSW,240,5.0,8.0,30,0.00,,BKN200,0.00,42.00,VWS V14.01,2013-03-08 20:15:00,
2013-03-08 13:20:00,58.9,28.3,29.89,SSW,198,9.0,9.0,31,0.00,,BKN200,0.00,39.00,VWS V14.01,2013-03-08 20:20:00,
2013-03-08 13:25:00,58.4,28.7,29.90,SW,229,2.0,9.0,32,0.00,,BKN200,0.00,37.00,VWS V14.01,2013-03-08 20:25:00,
2013-03-08 13:30:00,57.3,29.9,29.91,SSW,200,8.0,9.0,35,0.00,,BKN200,0.00,35.00,VWS V14.01,2013-03-08 20:30:00,
2013-03-08 13:35:00,55.6,36.2,29.92,SSE,159,11.0,24.0,48,0.00,,BKN200,0.00,33.00,VWS V14.01,2013-03-08 20:35:00,
2013-03-08 13:40:00,53.0,37.7,29.93,SSW,210,9.0,19.0,56,0.01,,BKN200,0.01,33.00,VWS V14.01,2013-03-08 20:40:00,
2013-03-08 13:45:00,51.4,38.4,29.93,SW,227,1.0,6.0,61,0.01,,BKN200,0.01,30.00,VWS V14.01,2013-03-08 20:45:00,
2013-03-08 13:50:00,50.5,39.6,29.93,SSW,198,0.0,5.0,66,0.02,,BKN200,0.02,28.00,VWS V14.01,2013-03-08 20:50:00,
2013-03-08 13:55:00,49.7,40.0,29.93,South,190,6.0,10.0,69,0.03,,BKN200,0.03,46.00,VWS V14.01,2013-03-08 20:55:00,
2013-03-08 14:00:00,48.8,40.2,29.94,SSW,211,4.0,8.0,72,0.05,,OVC060,0.05,35.00,VWS V14.01,2013-03-08 21:00:00,
2013-03-08 14:05:00,48.1,40.2,29.94,South,186,6.0,6.0,74,0.06,,OVC060,0.06,21.00,VWS V14.01,2013-03-08 21:05:00,
2013-03-08 14:11:00,47.5,40.0,29.95,South,189,0.0,8.0,75,0.07,,OVC060,0.07,12.00,VWS V14.01,2013-03-08 21:11:00,
2013-03-08 14:16:00,47.2,40.7,29.93,SE,139,0.0,6.0,78,0.09,,OVC060,0.09,35.00,VWS V14.01,2013-03-08 21:16:00,
2013-03-08 14:21:00,47.0,41.2,29.92,SSE,149,0.0,2.0,80,0.11,,OVC060,0.11,70.00,VWS V14.01,2013-03-08 21:21:00,
2013-03-08 14:26:00,46.9,41.7,29.92,SSE,148,0.0,0.0,82,0.11,,OVC060,0.11,125.00,VWS V14.01,2013-03-08 21:26:00,
2013-03-08 14:31:00,46.9,42.0,29.92,SSE,148,0.0,0.0,83,0.11,,OVC060,0.11,148.00,VWS V14.01,2013-03-08 21:31:00,
2013-03-08 14:36:00,46.9,42.3,29.92,SSE,148,0.0,0.0,84,0.11,,OVC060,0.11,128.00,VWS V14.01,2013-03-08 21:36:00,
2013-03-08 14:41:00,46.9,42.3,29.92,ESE,115,1.0,4.0,84,0.10,,OVC060,0.11,69.00,VWS V14.01,2013-03-08 21:41:00,
2013-03-08 14:46:00,46.9,42.3,29.91,ESE,107,0.0,3.0,84,0.10,,OVC060,0.11,76.00,VWS V14.01,2013-03-08 21:46:00,
2013-03-08 14:51:00,46.8,42.2,29.91,East,80,3.0,5.0,84,0.09,,OVC060,0.11,190.00,VWS V14.01,2013-03-08 21:51:00,
2013-03-08 14:56:00,47.0,42.7,29.90,East,88,6.0,8.0,85,0.08,,OVC060,0.11,213.00,VWS V14.01,2013-03-08 21:56:00,
2013-03-08 15:01:00,47.1,42.8,29.90,NE,44,5.0,5.0,85,0.07,,-RA,0.11,120.00,VWS V14.01,2013-03-08 22:01:00,
2013-03-08 15:06:00,47.1,42.5,29.89,East,80,1.0,5.0,84,0.06,,-RA,0.11,76.00,VWS V14.01,2013-03-08 22:06:00,
2013-03-08 15:11:00,47.1,42.5,29.90,ENE,74,1.0,4.0,84,0.04,,-RA,0.11,58.00,VWS V14.01,2013-03-08 22:11:00,
2013-03-08 15:16:00,47.1,42.5,29.90,East,96,1.0,2.0,84,0.02,,-RA,0.11,65.00,VWS V14.01,2013-03-08 22:16:00,
2013-03-08 15:21:00,47.2,42.6,29.90,East,97,2.0,2.0,84,0.01,,-RA,0.11,58.00,VWS V14.01,2013-03-08 22:21:00,
2013-03-08 15:26:00,47.3,42.7,29.90,East,97,0.0,1.0,84,0.00,,-RA,0.11,42.00,VWS V14.01,2013-03-08 22:26:00,
2013-03-08 15:32:00,47.4,42.8,29.90,ESE,117,0.0,1.0,84,0.00,,-RA,0.11,47.00,VWS V14.01,2013-03-08 22:32:00,
2013-03-08 15:37:00,47.4,42.8,29.89,ESE,117,1.0,2.0,84,0.00,,-RA,0.11,49.00,VWS V14.01,2013-03-08 22:37:00,
2013-03-08 15:42:00,47.4,43.1,29.89,ESE,112,2.0,3.0,85,0.00,,-RA,0.11,134.00,VWS V14.01,2013-03-08 22:42:00,
2013-03-08 15:47:00,47.6,43.3,29.88,ESE,110,0.0,4.0,85,0.00,,-RA,0.11,171.00,VWS V14.01,2013-03-08 22:47:00,
2013-03-08 15:52:00,48.1,44.1,29.88,ESE,109,0.0,3.0,86,0.00,,-RA,0.11,197.00,VWS V14.01,2013-03-08 22:52:00,
2013-03-08 15:57:00,48.7,44.7,29.88,East,101,1.0,3.0,86,0.00,,-RA,0.11,165.00,VWS V14.01,2013-03-08 22:57:00,
2013-03-08 16:02:00,49.0,44.7,29.87,ESE,121,0.0,6.0,85,0.00,,-RA,0.11,142.00,VWS V14.01,2013-03-08 23:02:00,
2013-03-08 16:07:00,49.3,44.7,29.87,South,183,5.0,6.0,84,0.00,,-RA,0.11,178.00,VWS V14.01,2013-03-08 23:07:00,
2013-03-08 16:12:00,49.7,45.1,29.86,South,169,2.0,4.0,84,0.00,,-RA,0.11,244.00,VWS V14.01,2013-03-08 23:12:00,
2013-03-08 16:17:00,50.2,45.2,29.86,South,169,0.0,3.0,83,0.00,,-RA,0.11,176.00,VWS V14.01,2013-03-08 23:17:00,
2013-03-08 16:22:00,50.6,44.7,29.86,SSW,194,1.0,7.0,80,0.00,,-RA,0.11,185.00,VWS V14.01,2013-03-08 23:22:00,
2013-03-08 16:27:00,50.8,43.9,29.85,South,171,3.0,7.0,77,0.00,,-RA,0.11,144.00,VWS V14.01,2013-03-08 23:27:00,
2013-03-08 16:32:00,51.0,43.7,29.84,South,171,0.0,7.0,76,0.00,,-RA,0.11,65.00,VWS V14.01,2013-03-08 23:32:00,
2013-03-08 16:37:00,50.9,42.9,29.84,SSE,151,5.0,6.0,74,0.00,,-RA,0.11,49.00,VWS V14.01,2013-03-08 23:37:00,
2013-03-08 16:42:00,50.7,42.4,29.84,South,171,5.0,8.0,73,0.00,,-RA,0.11,47.00,VWS V14.01,2013-03-08 23:42:00,
2013-03-08 16:47:00,50.5,42.2,29.84,SSE,158,6.0,8.0,73,0.00,,-RA,0.11,113.00,VWS V14.01,2013-03-08 23:47:00,
2013-03-08 16:52:00,50.5,42.5,29.84,South,169,4.0,11.0,74,0.00,,-RA,0.11,185.00,VWS V14.01,2013-03-08 23:52:00,
2013-03-08 16:58:00,50.5,41.8,29.84,South,188,2.0,16.0,72,0.00,,-RA,0.11,49.00,VWS V14.01,2013-03-08 23:58:00,
2013-03-08 17:03:00,50.5,41.8,29.83,SW,226,5.0,10.0,72,0.00,,OVC095,0.11,21.00,VWS V14.01,2013-03-09 00:03:00,
2013-03-08 17:08:00,50.3,41.6,29.84,South,183,11.0,11.0,72,0.00,,OVC095,0.11,16.00,VWS V14.01,2013-03-09 00:08:00,
2013-03-08 17:13:00,50.1,41.4,29.84,South,183,7.0,13.0,72,0.00,,OVC095,0.11,14.00,VWS V14.01,2013-03-09 00:13:00,
2013-03-08 17:18:00,49.9,41.2,29.84,SSW,200,5.0,8.0,72,0.00,,OVC095,0.11,14.00,VWS V14.01,2013-03-09 00:18:00,
2013-03-08 17:23:00,49.8,41.5,29.84,South,181,2.0,7.0,73,0.00,,OVC095,0.11,21.00,VWS V14.01,2013-03-09 00:23:00,
2013-03-08 17:28:00,49.9,41.6,29.84,South,188,3.0,9.0,73,0.00,,OVC095,0.11,40.00,VWS V14.01,2013-03-09 00:28:00,
2013-03-08 17:33:00,49.9,40.9,29.84,SSW,193,5.0,7.0,71,0.00,,-RA,0.11,60.00,VWS V14.01,2013-03-09 00:33:00,
2013-03-08 17:38:00,50.0,41.0,29.85,SSW,199,2.0,9.0,71,0.00,,-RA,0.11,33.00,VWS V14.01,2013-03-09 00:38:00,
2013-03-08 17:43:00,50.1,40.7,29.84,SSW,211,1.0,9.0,70,0.00,,-RA,0.11,21.00,VWS V14.01,2013-03-09 00:43:00,
2013-03-08 17:48:00,49.7,39.2,29.84,NW,307,2.0,7.0,67,0.00,,-RA,0.11,11.00,VWS V14.01,2013-03-09 00:48:00,
2013-03-08 17:53:00,49.2,39.5,29.83,NW,307,3.0,5.0,69,0.00,,-RA,0.11,7.00,VWS V14.01,2013-03-09 00:53:00,
2013-03-08 17:58:00,48.8,39.5,29.83,NW,307,0.0,5.0,70,0.00,,-RA,0.11,5.00,VWS V14.01,2013-03-09 00:58:00,
2013-03-08 18:03:00,48.7,39.4,29.84,NW,307,0.0,1.0,70,0.00,,-RA,0.11,0.00,VWS V14.01,2013-03-09 01:03:00,
2013-03-08 18:08:00,48.5,39.5,29.84,NW,307,0.0,0.0,71,0.00,,-RA,0.11,0.00,VWS V14.01,2013-03-09 01:08:00,
2013-03-08 18:14:00,48.1,39.5,29.84,NW,307,0.0,1.0,72,0.00,,-RA,0.11,0.00,VWS V14.01,2013-03-09 01:14:00,
2013-03-08 18:19:00,47.9,39.7,29.84,NW,307,0.0,0.0,73,0.00,,-RA,0.11,0.00,VWS V14.01,2013-03-09 01:19:00,
2013-03-08 18:24:00,47.8,39.9,29.84,NW,307,0.0,1.0,74,0.00,,-RA,0.11,0.00,VWS V14.01,2013-03-09 01:24:00,
2013-03-08 18:29:00,47.6,39.7,29.84,NW,307,0.0,0.0,74,0.00,,-RA,0.11,0.00,VWS V14.01,2013-03-09 01:29:00,
2013-03-08 18:34:00,47.5,40.0,29.85,NW,307,0.0,0.0,75,0.00,,-RA,0.11,0.00,VWS V14.01,2013-03-09 01:34:00,
2013-03-08 18:39:00,47.3,40.1,29.84,NW,307,0.0,0.0,76,0.00,,-RA,0.11,0.00,VWS V14.01,2013-03-09 01:39:00,
2013-03-08 18:44:00,47.2,40.0,29.84,NW,307,0.0,1.0,76,0.00,,-RA,0.11,0.00,VWS V14.01,2013-03-09 01:44:00,
2013-03-08 18:49:00,47.2,40.4,29.84,SW,232,0.0,3.0,77,0.00,,-RA,0.11,0.00,VWS V14.01,2013-03-09 01:49:00,
2013-03-08 18:54:00,47.5,40.7,29.84,South,183,4.0,7.0,77,0.00,,-RA,0.11,0.00,VWS V14.01,2013-03-09 01:54:00,
2013-03-08 18:59:00,47.9,40.7,29.84,South,180,7.0,8.0,76,0.00,,-RA,0.11,0.00,VWS V14.01,2013-03-09 01:59:00,
2013-03-08 19:04:00,48.3,40.8,29.84,South,182,5.0,12.0,75,0.00,,BKN090,0.11,0.00,VWS V14.01,2013-03-09 02:04:00,
2013-03-08 19:09:00,48.6,40.0,29.84,South,184,9.0,12.0,72,0.00,,BKN090,0.11,0.00,VWS V14.01,2013-03-09 02:09:00,
2013-03-08 19:14:00,48.8,39.8,29.85,South,173,6.0,14.0,71,0.00,,BKN090,0.11,0.00,VWS V14.01,2013-03-09 02:14:00,
2013-03-08 19:19:00,49.0,38.5,29.84,SSW,195,3.0,4.0,67,0.00,,BKN090,0.11,0.00,VWS V14.01,2013-03-09 02:19:00,
2013-03-08 19:24:00,49.1,38.6,29.85,South,173,4.0,11.0,67,0.00,,BKN090,0.11,0.00,VWS V14.01,2013-03-09 02:24:00,
2013-03-08 19:29:00,49.1,37.9,29.84,South,182,10.0,12.0,65,0.00,,BKN090,0.11,0.00,VWS V14.01,2013-03-09 02:29:00,
2013-03-08 19:34:00,49.2,36.8,29.84,South,187,4.0,14.0,62,0.00,,BKN090,0.11,0.00,VWS V14.01,2013-03-09 02:34:00,
2013-03-08 19:39:00,49.2,36.3,29.84,South,182,3.0,10.0,61,0.00,,BKN090,0.11,0.00,VWS V14.01,2013-03-09 02:39:00,
2013-03-08 19:45:00,49.1,35.8,29.84,South,181,6.0,11.0,60,0.00,,BKN090,0.11,0.00,VWS V14.01,2013-03-09 02:45:00,
2013-03-08 19:50:00,49.0,35.7,29.84,South,188,7.0,12.0,60,0.00,,BKN090,0.11,0.00,VWS V14.01,2013-03-09 02:50:00,
2013-03-08 19:55:00,48.9,35.6,29.84,South,175,6.0,10.0,60,0.00,,BKN090,0.11,0.00,VWS V14.01,2013-03-09 02:55:00,
2013-03-08 20:00:00,48.7,35.5,29.85,South,184,2.0,5.0,60,0.00,,BKN090,0.11,0.00,VWS V14.01,2013-03-09 03:00:00,
2013-03-08 20:05:00,48.6,35.8,29.84,SSW,202,0.0,8.0,61,0.00,,-RA,0.11,0.00,VWS V14.01,2013-03-09 03:05:00,
2013-03-08 20:10:00,48.4,36.0,29.85,SSE,162,0.0,5.0,62,0.00,,-RA,0.11,0.00,VWS V14.01,2013-03-09 03:10:00,
2013-03-08 20:15:00,48.2,36.6,29.85,South,185,2.0,5.0,64,0.00,,-RA,0.11,0.00,VWS V14.01,2013-03-09 03:15:00,
2013-03-08 20:20:00,47.9,36.7,29.85,South,173,3.0,5.0,65,0.00,,-RA,0.11,0.00,VWS V14.01,2013-03-09 03:20:00,
2013-03-08 20:25:00,47.7,36.9,29.85,South,185,2.0,8.0,66,0.00,,-RA,0.11,0.00,VWS V14.01,2013-03-09 03:25:00,
2013-03-08 20:30:00,47.5,36.7,29.85,South,176,1.0,8.0,66,0.00,,-RA,0.11,0.00,VWS V14.01,2013-03-09 03:30:00,
2013-03-08 20:35:00,47.3,36.5,29.85,SSE,159,5.0,12.0,66,0.00,,-RA,0.11,0.00,VWS V14.01,2013-03-09 03:35:00,
2013-03-08 20:41:00,47.2,36.8,29.85,SSE,155,4.0,7.0,67,0.00,,-RA,0.11,0.00,VWS V14.01,2013-03-09 03:41:00,
2013-03-08 20:46:00,47.0,36.6,29.85,South,177,8.0,10.0,67,0.00,,-RA,0.11,0.00,VWS V14.01,2013-03-09 03:46:00,
2013-03-08 20:51:00,47.0,36.2,29.85,South,178,4.0,10.0,66,0.00,,-RA,0.11,0.00,VWS V14.01,2013-03-09 03:51:00,
2013-03-08 20:56:00,46.8,36.0,29.86,South,178,3.0,10.0,66,0.00,,-RA,0.11,0.00,VWS V14.01,2013-03-09 03:56:00,
2013-03-08 21:01:00,46.7,36.0,29.86,South,176,9.0,9.0,66,0.00,,BKN100,0.11,0.00,VWS V14.01,2013-03-09 04:01:00,
2013-03-08 21:06:00,46.5,35.8,29.86,South,190,4.0,13.0,66,0.00,,BKN100,0.11,0.00,VWS V14.01,2013-03-09 04:06:00,
2013-03-08 21:11:00,46.4,35.7,29.87,South,173,10.0,10.0,66,0.00,,BKN100,0.11,0.00,VWS V14.01,2013-03-09 04:11:00,
2013-03-08 21:16:00,46.4,35.7,29.87,South,180,8.0,10.0,66,0.00,,BKN100,0.11,0.00,VWS V14.01,2013-03-09 04:16:00,
2013-03-08 21:21:00,46.4,35.7,29.88,WSW,242,6.0,10.0,66,0.00,,BKN100,0.11,0.00,VWS V14.01,2013-03-09 04:21:00,
2013-03-08 21:26:00,46.1,35.8,29.88,WSW,247,13.0,14.0,67,0.00,,BKN100,0.11,0.00,VWS V14.01,2013-03-09 04:26:00,
2013-03-08 21:31:00,45.5,35.6,29.88,WSW,256,4.0,15.0,68,0.00,,BKN100,0.11,0.00,VWS V14.01,2013-03-09 04:31:00,
2013-03-08 21:36:00,45.0,35.1,29.88,West,273,8.0,13.0,68,0.00,,BKN100,0.11,0.00,VWS V14.01,2013-03-09 04:36:00,
2013-03-08 21:41:00,44.5,35.0,29.87,West,279,4.0,16.0,69,0.00,,BKN100,0.11,0.00,VWS V14.01,2013-03-09 04:41:00,
2013-03-08 21:46:00,44.1,35.0,29.86,WNW,300,5.0,8.0,70,0.00,,BKN100,0.11,0.00,VWS V14.01,2013-03-09 04:46:00,
2013-03-08 21:51:00,43.8,35.0,29.86,West,259,2.0,5.0,71,0.00,,BKN100,0.11,0.00,VWS V14.01,2013-03-09 04:51:00,
2013-03-08 21:57:00,43.4,35.3,29.86,WSW,250,2.0,6.0,73,0.00,,BKN100,0.11,0.00,VWS V14.01,2013-03-09 04:57:00,
2013-03-08 22:00:00,43.3,35.2,29.86,West,260,6.0,9.0,73,0.00,,BKN100,0.11,0.00,VWS V14.01,2013-03-09 05:00:00,
2013-03-08 22:01:00,43.3,35.2,29.86,West,259,1.0,9.0,73,0.00,,BKN120,0.11,0.00,VWS V14.01,2013-03-09 05:01:00,
2013-03-08 22:06:00,43.0,35.3,29.86,West,261,2.0,5.0,74,0.00,,BKN120,0.11,0.00,VWS V14.01,2013-03-09 05:06:00,
2013-03-08 22:11:00,42.8,35.4,29.86,WSW,251,0.0,5.0,75,0.00,,BKN120,0.11,0.00,VWS V14.01,2013-03-09 05:11:00,
2013-03-08 22:16:00,42.6,35.6,29.86,West,265,0.0,5.0,76,0.00,,BKN120,0.11,0.00,VWS V14.01,2013-03-09 05:16:00,
2013-03-08 22:21:00,42.5,35.8,29.86,West,265,0.0,5.0,77,0.00,,BKN120,0.11,0.00,VWS V14.01,2013-03-09 05:21:00,
2013-03-08 22:26:00,42.4,35.7,29.86,West,277,2.0,7.0,77,0.00,,BKN120,0.11,0.00,VWS V14.01,2013-03-09 05:26:00,
2013-03-08 22:31:00,42.3,35.9,29.87,West,277,2.0,5.0,78,0.00,,BKN120,0.11,0.00,VWS V14.01,2013-03-09 05:31:00,
2013-03-08 22:36:00,42.1,35.8,29.86,West,277,0.0,4.0,78,0.00,,BKN120,0.11,0.00,VWS V14.01,2013-03-09 05:36:00,
2013-03-08 22:41:00,42.0,36.0,29.86,West,277,0.0,5.0,79,0.00,,BKN120,0.11,0.00,VWS V14.01,2013-03-09 05:41:00,
2013-03-08 22:46:00,41.9,35.9,29.85,WNW,292,1.0,1.0,79,0.00,,BKN120,0.11,0.00,VWS V14.01,2013-03-09 05:46:00,
2013-03-08 22:51:00,41.9,35.9,29.85,WNW,292,0.0,2.0,79,0.00,,BKN120,0.11,0.00,VWS V14.01,2013-03-09 05:51:00,
2013-03-08 22:56:00,41.8,35.8,29.85,WNW,292,0.0,0.0,79,0.00,,BKN120,0.11,0.00,VWS V14.01,2013-03-09 05:56:00,
2013-03-08 23:01:00,41.8,35.8,29.86,WNW,292,0.0,0.0,79,0.00,,BKN100,0.11,0.00,VWS V14.01,2013-03-09 06:01:00,
2013-03-08 23:06:00,41.8,35.8,29.86,WNW,292,0.0,1.0,79,0.00,,BKN100,0.11,0.00,VWS V14.01,2013-03-09 06:06:00,
2013-03-08 23:11:00,41.9,35.9,29.86,WSW,257,18.0,19.0,79,0.00,,BKN100,0.11,0.00,VWS V14.01,2013-03-09 06:11:00,
2013-03-08 23:17:00,41.8,35.8,29.86,SW,229,6.0,13.0,79,0.00,,BKN100,0.11,0.00,VWS V14.01,2013-03-09 06:17:00,
2013-03-08 23:22:00,41.4,35.4,29.87,WSW,258,10.0,15.0,79,0.00,,BKN100,0.11,0.00,VWS V14.01,2013-03-09 06:22:00,
2013-03-08 23:27:00,41.0,35.0,29.87,WSW,252,6.0,13.0,79,0.00,,BKN100,0.11,0.00,VWS V14.01,2013-03-09 06:27:00,
2013-03-08 23:32:00,40.7,35.0,29.87,West,265,7.0,7.0,80,0.00,,BKN100,0.11,0.00,VWS V14.01,2013-03-09 06:32:00,
2013-03-08 23:37:00,40.6,34.9,29.87,WSW,257,5.0,10.0,80,0.00,,BKN100,0.11,0.00,VWS V14.01,2013-03-09 06:37:00,
2013-03-08 23:42:00,40.5,34.8,29.87,WNW,290,3.0,7.0,80,0.00,,BKN100,0.11,0.00,VWS V14.01,2013-03-09 06:42:00,
2013-03-08 23:47:00,40.4,35.0,29.87,WSW,252,1.0,11.0,81,0.00,,BKN100,0.11,0.00,VWS V14.01,2013-03-09 06:47:00,
2013-03-08 23:52:00,40.4,34.7,29.87,West,259,9.0,12.0,80,0.00,,BKN100,0.11,0.00,VWS V14.01,2013-03-09 06:52:00,
2013-03-08 23:57:00,40.3,34.6,29.87,West,260,7.0,11.0,80,0.00,,BKN100,0.11,0.00,VWS V14.01,2013-03-09 06:57:00,